createdAt,value
2022-12-13T00:00:30.729Z,98076.19
2022-12-13T00:02:57.406Z,98076.56
2022-12-13T00:05:24.032Z,98079.72
2022-12-13T00:07:50.715Z,98074.81
2022-12-13T00:10:17.449Z,98068.63
2022-12-13T00:12:44.218Z,98073.75
2022-12-13T00:15:11.388Z,98071.16
2022-12-13T00:17:38.243Z,98077.00
2022-12-13T00:20:05.644Z,98085.19
2022-12-13T00:22:32.315Z,98074.78
2022-12-13T00:24:59.052Z,98081.09
2022-12-13T00:27:25.930Z,98078.72
2022-12-13T00:29:52.706Z,98085.66
2022-12-13T00:32:19.367Z,98080.03
2022-12-13T00:34:46.053Z,98079.94
2022-12-13T00:37:12.877Z,98072.81
2022-12-13T00:39:39.864Z,98070.84
2022-12-13T00:42:06.823Z,98066.03
2022-12-13T00:44:33.518Z,98074.06
2022-12-13T00:47:00.171Z,98071.28
2022-12-13T00:49:26.918Z,98072.81
2022-12-13T00:51:53.605Z,98069.06
2022-12-13T00:54:20.333Z,98065.94
2022-12-13T00:56:47.054Z,98076.31
2022-12-13T00:59:15.529Z,98072.56
2022-12-13T01:01:42.550Z,98072.34
2022-12-13T01:04:10.439Z,98070.09
2022-12-13T01:06:41.876Z,98072.50
2022-12-13T01:09:17.157Z,98071.00
2022-12-13T01:11:44.830Z,98071.13
2022-12-13T01:14:11.895Z,98066.91
2022-12-13T01:16:38.829Z,98068.38
2022-12-13T01:19:05.531Z,98069.22
2022-12-13T01:21:32.322Z,98069.97
2022-12-13T01:24:05.356Z,98068.69
2022-12-13T01:26:32.778Z,98057.69
2022-12-13T01:28:59.968Z,98059.19
2022-12-13T01:31:27.530Z,98046.72
2022-12-13T01:33:54.191Z,98051.16
2022-12-13T01:36:27.584Z,98050.59
2022-12-13T01:38:58.672Z,98048.44
2022-12-13T01:41:27.344Z,98048.19
2022-12-13T01:44:00.040Z,98050.75
2022-12-13T01:46:27.218Z,98044.72
2022-12-13T01:48:58.127Z,98039.94
2022-12-13T01:51:32.072Z,98042.22
2022-12-13T01:54:03.168Z,98043.00
2022-12-13T01:56:36.926Z,98037.19
2022-12-13T01:59:05.748Z,98038.09
2022-12-13T02:01:32.938Z,98034.91
2022-12-13T02:03:59.841Z,98029.09
2022-12-13T02:06:36.479Z,98025.63
2022-12-13T02:09:05.902Z,98027.03
2022-12-13T02:11:35.314Z,98026.72
2022-12-13T02:14:02.171Z,98027.41
2022-12-13T02:16:55.488Z,98032.91
2022-12-13T02:19:53.534Z,98023.06
2022-12-13T02:22:46.228Z,98027.59
2022-12-13T02:25:14.255Z,98027.19
2022-12-13T02:27:42.624Z,98026.22
2022-12-13T02:30:25.298Z,98030.72
2022-12-13T02:33:08.595Z,98025.59
2022-12-13T02:35:53.295Z,98024.19
2022-12-13T02:38:38.058Z,98026.00
2022-12-13T02:41:36.357Z,98027.34
2022-12-13T02:44:23.970Z,98019.31
2022-12-13T02:47:00.132Z,98016.53
2022-12-13T02:49:29.419Z,98018.53
2022-12-13T02:51:59.367Z,98025.13
2022-12-13T02:54:26.043Z,98009.81
2022-12-13T02:57:00.706Z,98009.06
2022-12-13T02:59:31.527Z,98010.81
2022-12-13T03:02:10.107Z,98008.69
2022-12-13T03:05:12.554Z,98005.94
2022-12-13T03:07:49.791Z,98003.56
2022-12-13T03:10:24.054Z,97992.44
2022-12-13T03:13:06.016Z,97997.06
2022-12-13T03:15:47.766Z,97996.69
2022-12-13T03:18:21.439Z,97996.53
2022-12-13T03:20:50.385Z,97989.75
2022-12-13T03:23:19.842Z,97984.72
2022-12-13T03:25:49.876Z,97977.88
2022-12-13T03:28:16.792Z,97977.69
2022-12-13T03:30:43.660Z,97977.16
2022-12-13T03:33:13.641Z,97967.66
2022-12-13T03:35:44.775Z,97965.78
2022-12-13T03:38:22.027Z,97965.28
2022-12-13T03:40:53.655Z,97975.59
2022-12-13T03:43:22.059Z,97977.97
2022-12-13T03:45:49.317Z,97970.72
2022-12-13T03:48:22.629Z,97970.72
2022-12-13T03:50:52.238Z,97972.25
2022-12-13T03:53:23.368Z,97962.66
2022-12-13T03:56:02.453Z,97962.84
2022-12-13T03:58:35.696Z,97954.47
2022-12-13T04:01:05.722Z,97954.56
2022-12-13T04:03:32.392Z,97954.09
2022-12-13T04:05:59.081Z,97954.28
2022-12-13T04:08:25.824Z,97947.38
2022-12-13T04:10:52.587Z,97954.00
2022-12-13T04:13:34.553Z,97950.88
2022-12-13T04:16:02.689Z,97941.69
2022-12-13T04:18:29.931Z,97945.94
2022-12-13T04:20:58.177Z,97945.28
2022-12-13T04:23:24.801Z,97945.19
2022-12-13T04:25:52.875Z,97949.63
2022-12-13T04:28:22.830Z,97944.50
2022-12-13T04:30:53.012Z,97944.34
2022-12-13T04:33:22.428Z,97931.25
2022-12-13T04:35:50.315Z,97934.84
2022-12-13T04:38:17.427Z,97932.13
2022-12-13T04:40:44.139Z,97932.28
2022-12-13T04:43:11.118Z,97935.03
2022-12-13T04:45:37.810Z,97926.38
2022-12-13T04:48:04.910Z,97932.19
2022-12-13T04:50:31.532Z,97938.06
2022-12-13T04:52:58.214Z,97933.19
2022-12-13T04:55:24.902Z,97933.38
2022-12-13T04:57:51.585Z,97929.03
2022-12-13T05:00:18.318Z,97928.16
2022-12-13T05:02:44.994Z,97927.31
2022-12-13T05:05:12.238Z,97927.16
2022-12-13T05:07:41.840Z,97929.19
2022-12-13T05:10:11.093Z,97923.84
2022-12-13T05:12:37.845Z,97931.38
2022-12-13T05:15:05.360Z,97919.16
2022-12-13T05:17:32.115Z,97919.44
2022-12-13T05:19:58.771Z,97925.13
2022-12-13T05:22:25.516Z,97923.97
2022-12-13T05:24:52.252Z,97915.31
2022-12-13T05:27:25.130Z,97923.34
2022-12-13T05:30:02.752Z,97923.38
2022-12-13T05:32:42.550Z,97924.38
2022-12-13T05:35:12.825Z,97915.16
2022-12-13T05:37:39.632Z,97925.34
2022-12-13T05:40:06.962Z,97911.09
2022-12-13T05:42:33.656Z,97916.16
2022-12-13T05:45:00.330Z,97911.63
2022-12-13T05:47:26.983Z,97913.22
2022-12-13T05:49:53.739Z,97922.09
2022-12-13T05:52:22.312Z,97912.63
2022-12-13T05:55:00.963Z,97916.22
2022-12-13T05:57:28.119Z,97921.13
2022-12-13T05:59:55.116Z,97913.50
2022-12-13T06:02:22.221Z,97913.72
2022-12-13T06:04:49.164Z,97915.34
2022-12-13T06:07:15.849Z,97911.63
2022-12-13T06:09:43.681Z,97912.91
2022-12-13T06:12:12.667Z,97911.34
2022-12-13T06:15:00.870Z,97910.41
2022-12-13T06:17:36.847Z,97920.09
2022-12-13T06:20:24.451Z,97914.75
2022-12-13T06:22:53.270Z,97913.47
2022-12-13T06:25:30.582Z,97912.75
2022-12-13T06:28:00.968Z,97914.69
2022-12-13T06:30:29.615Z,97913.56
2022-12-13T06:32:57.021Z,97921.63
2022-12-13T06:35:28.748Z,97921.53
2022-12-13T06:38:01.148Z,97920.66
2022-12-13T06:40:30.761Z,97918.69
2022-12-13T06:42:57.953Z,97925.31
2022-12-13T06:45:26.963Z,97925.81
2022-12-13T06:47:53.721Z,97923.72
2022-12-13T06:50:20.390Z,97924.75
2022-12-13T06:52:47.461Z,97927.38
2022-12-13T06:55:14.557Z,97933.53
2022-12-13T06:57:41.782Z,97925.56
2022-12-13T07:00:10.186Z,97926.72
2022-12-13T07:02:38.451Z,97935.28
2022-12-13T07:05:06.219Z,97938.50
2022-12-13T07:07:32.920Z,97929.22
2022-12-13T07:09:59.747Z,97928.78
2022-12-13T07:12:26.612Z,97927.78
2022-12-13T07:14:53.315Z,97928.59
2022-12-13T07:17:32.641Z,97935.94
2022-12-13T07:20:08.452Z,97938.56
2022-12-13T07:22:39.893Z,97942.66
2022-12-13T07:25:27.170Z,97937.75
2022-12-13T07:28:02.274Z,97947.03
2022-12-13T07:30:31.516Z,97943.41
2022-12-13T07:32:58.266Z,97949.13
2022-12-13T07:35:28.164Z,97948.69
2022-12-13T07:37:54.981Z,97942.06
2022-12-13T07:40:21.658Z,97946.88
2022-12-13T07:42:51.550Z,97944.50
2022-12-13T07:45:18.676Z,97939.25
2022-12-13T07:47:45.565Z,97940.31
2022-12-13T07:50:24.222Z,97942.06
2022-12-13T07:52:53.514Z,97935.88
2022-12-13T07:55:23.274Z,97928.16
2022-12-13T07:58:06.307Z,97928.72
2022-12-13T08:00:33.294Z,97931.03
2022-12-13T08:03:01.969Z,97929.50
2022-12-13T08:05:29.310Z,97926.66
2022-12-13T08:08:07.805Z,97922.56
2022-12-13T08:10:34.520Z,97919.66
2022-12-13T08:13:03.194Z,97915.16
2022-12-13T08:15:30.581Z,97908.81
2022-12-13T08:17:57.974Z,97910.09
2022-12-13T08:20:24.671Z,97917.56
2022-12-13T08:22:56.020Z,97908.34
2022-12-13T08:25:29.619Z,97914.59
2022-12-13T08:28:01.482Z,97917.28
2022-12-13T08:30:30.590Z,97911.31
2022-12-13T08:32:57.685Z,97918.25
2022-12-13T08:35:33.773Z,97922.63
2022-12-13T08:38:01.182Z,97907.25
2022-12-13T08:40:28.011Z,97916.25
2022-12-13T08:42:56.086Z,97918.69
2022-12-13T08:45:24.252Z,97913.94
2022-12-13T08:47:50.919Z,97918.50
2022-12-13T08:50:17.725Z,97919.44
2022-12-13T08:52:45.260Z,97923.53
2022-12-13T08:55:14.428Z,97912.69
2022-12-13T08:57:42.514Z,97920.00
2022-12-13T09:00:14.065Z,97923.78
2022-12-13T09:02:40.910Z,97921.88
2022-12-13T09:05:09.196Z,97924.31
2022-12-13T09:07:36.965Z,97927.06
2022-12-13T09:10:07.283Z,97926.38
2022-12-13T09:12:52.300Z,97928.00
2022-12-13T09:15:34.278Z,97928.13
2022-12-13T09:18:04.118Z,97923.25
2022-12-13T09:20:32.333Z,97930.41
2022-12-13T09:23:14.244Z,97920.56
2022-12-13T09:26:05.912Z,97915.22
2022-12-13T09:28:34.868Z,97905.63
2022-12-13T09:31:02.008Z,97896.50
2022-12-13T09:33:30.598Z,97893.88
2022-12-13T09:35:57.955Z,97887.06
2022-12-13T09:38:24.660Z,97886.25
2022-12-13T09:40:59.195Z,97877.00
2022-12-13T09:43:33.521Z,97874.59
2022-12-13T09:46:22.932Z,97869.56
2022-12-13T09:49:01.601Z,97863.06
2022-12-13T09:51:41.490Z,97866.91
2022-12-13T09:54:21.184Z,97862.81
2022-12-13T09:56:51.177Z,97874.00
2022-12-13T09:59:23.954Z,97868.53
2022-12-13T10:01:50.696Z,97874.72
2022-12-13T10:04:18.268Z,97872.91
2022-12-13T10:06:44.946Z,97870.78
2022-12-13T10:09:14.269Z,97864.28
2022-12-13T10:11:56.542Z,97864.97
2022-12-13T10:14:31.457Z,97852.06
2022-12-13T10:17:02.709Z,97847.75
2022-12-13T10:19:36.844Z,97855.94
2022-12-13T10:22:06.113Z,97849.09
2022-12-13T10:24:48.311Z,97848.56
2022-12-13T10:27:18.153Z,97842.91
2022-12-13T10:30:00.291Z,97842.00
2022-12-13T10:32:28.092Z,97826.63
2022-12-13T10:34:55.439Z,97829.22
2022-12-13T10:37:23.113Z,97823.66
2022-12-13T10:39:50.339Z,97825.63
2022-12-13T10:42:23.704Z,97824.06
2022-12-13T10:45:14.245Z,97813.22
2022-12-13T10:47:44.709Z,97816.44
2022-12-13T10:50:28.637Z,97815.19
2022-12-13T10:52:57.662Z,97819.38
2022-12-13T10:55:25.944Z,97819.72
2022-12-13T10:57:55.520Z,97813.19
2022-12-13T11:00:38.019Z,97808.69
2022-12-13T11:03:05.826Z,97801.53
2022-12-13T11:05:35.176Z,97792.28
2022-12-13T11:08:27.109Z,97796.47
2022-12-13T11:10:59.241Z,97790.09
2022-12-13T11:13:35.005Z,97794.38
2022-12-13T11:16:02.871Z,97798.69
2022-12-13T11:18:37.458Z,97793.06
2022-12-13T11:21:07.958Z,97790.53
2022-12-13T11:23:39.704Z,97785.31
2022-12-13T11:26:10.679Z,97787.22
2022-12-13T11:29:07.551Z,97783.84
2022-12-13T11:31:36.299Z,97779.81
2022-12-13T11:34:18.199Z,97770.94
2022-12-13T11:36:54.192Z,97777.47
2022-12-13T11:39:33.134Z,97775.84
2022-12-13T11:42:22.625Z,97759.16
2022-12-13T11:45:11.755Z,97760.28
2022-12-13T11:48:02.232Z,97757.19
2022-12-13T11:50:34.575Z,97765.47
2022-12-13T11:53:19.035Z,97764.00
2022-12-13T11:55:54.633Z,97770.03
2022-12-13T12:01:38.216Z,97770.03
2022-12-13T12:04:29.666Z,97766.13
2022-12-13T12:07:24.606Z,97759.63
2022-12-13T12:09:58.181Z,97766.28
2022-12-13T12:12:33.682Z,97757.53
2022-12-13T12:15:26.521Z,97754.59
2022-12-13T12:17:55.762Z,97754.91
2022-12-13T12:20:37.309Z,97758.00
2022-12-13T12:23:20.985Z,97757.69
2022-12-13T12:25:57.953Z,97758.00
2022-12-13T12:28:44.198Z,97752.47
2022-12-13T12:31:29.796Z,97741.78
2022-12-13T12:34:10.243Z,97745.50
2022-12-13T12:36:52.222Z,97742.09
2022-12-13T12:39:20.113Z,97741.59
2022-12-13T12:42:18.846Z,97737.72
2022-12-13T12:45:10.680Z,97731.22
2022-12-13T12:50:59.761Z,97735.13
2022-12-13T12:53:43.474Z,97728.63
2022-12-13T12:56:41.267Z,97727.81
2022-12-13T12:59:36.969Z,97731.06
2022-12-13T13:02:16.162Z,97731.06
2022-12-13T13:04:48.774Z,97720.66
2022-12-13T13:07:24.107Z,97727.28
2022-12-13T13:09:54.803Z,97722.28
2022-12-13T13:12:29.536Z,97711.25
2022-12-13T13:14:57.962Z,97718.56
2022-12-13T13:17:24.670Z,97723.41
2022-12-13T13:20:23.417Z,97728.63
2022-12-13T13:23:10.258Z,97727.94
2022-12-13T13:25:54.316Z,97726.78
2022-12-13T13:28:25.946Z,97723.50
2022-12-13T13:31:09.265Z,97726.41
2022-12-13T13:33:44.501Z,97718.41
2022-12-13T13:36:46.862Z,97730.34
2022-12-13T13:39:34.424Z,97730.78
2022-12-13T13:42:09.914Z,97722.78
2022-12-13T13:44:51.921Z,97729.47
2022-12-13T13:47:19.611Z,97738.78
2022-12-13T13:50:21.105Z,97737.41
2022-12-13T13:53:04.201Z,97735.88
2022-12-13T13:55:48.345Z,97740.50
2022-12-13T13:58:45.652Z,97756.38
2022-12-13T14:01:27.796Z,97749.03
2022-12-13T14:04:31.750Z,97752.19
2022-12-13T14:07:14.745Z,97753.53
2022-12-13T14:10:08.154Z,97756.50
2022-12-13T14:12:35.866Z,97750.00
2022-12-13T14:15:42.369Z,97741.63
2022-12-13T14:18:46.782Z,97744.09
2022-12-13T14:21:29.818Z,97743.28
2022-12-13T14:24:24.875Z,97738.34
2022-12-13T14:27:24.341Z,97744.63
2022-12-13T14:29:58.342Z,97757.75
2022-12-13T14:32:29.374Z,97757.22
2022-12-13T14:34:59.759Z,97763.00
2022-12-13T14:37:56.673Z,97749.56
2022-12-13T14:40:28.271Z,97760.03
2022-12-13T14:42:55.061Z,97764.25
2022-12-13T14:45:25.080Z,97757.19
2022-12-13T14:47:54.592Z,97746.16
2022-12-13T14:50:21.952Z,97749.56
2022-12-13T14:52:50.602Z,97755.09
2022-12-13T14:55:30.398Z,97757.19
2022-12-13T14:57:59.666Z,97758.31
2022-12-13T15:00:28.578Z,97757.63
2022-12-13T15:02:59.951Z,97758.50
2022-12-13T15:05:29.516Z,97762.22
2022-12-13T15:07:56.641Z,97769.16
2022-12-13T15:10:30.102Z,97761.69
2022-12-13T15:12:57.092Z,97761.03
2022-12-13T15:15:31.342Z,97759.38
2022-12-13T15:18:17.320Z,97768.72
2022-12-13T15:20:45.552Z,97772.41
2022-12-13T15:23:31.394Z,97766.81
2022-12-13T15:26:03.473Z,97774.22
2022-12-13T15:28:35.297Z,97768.94
2022-12-13T15:31:04.321Z,97767.34
2022-12-13T15:33:35.435Z,97772.53
2022-12-13T15:36:15.622Z,97770.84
2022-12-13T15:38:58.739Z,97764.66
2022-12-13T15:41:29.634Z,97769.09
2022-12-13T15:44:00.547Z,97777.88
2022-12-13T15:46:30.850Z,97784.59
2022-12-13T15:49:01.171Z,97789.84
2022-12-13T15:51:28.711Z,97789.03
2022-12-13T15:54:20.000Z,97785.22
2022-12-13T15:57:17.646Z,97784.38
2022-12-13T15:59:44.854Z,97783.66
2022-12-13T16:02:15.242Z,97778.13
2022-12-13T16:04:42.075Z,97781.56
2022-12-13T16:07:22.735Z,97778.66
2022-12-13T16:09:50.686Z,97771.41
2022-12-13T16:12:24.859Z,97766.44
2022-12-13T16:14:52.021Z,97768.72
2022-12-13T16:17:25.126Z,97777.41
2022-12-13T16:19:54.116Z,97771.56
2022-12-13T16:22:23.824Z,97774.59
2022-12-13T16:24:52.820Z,97780.00
2022-12-13T16:27:19.511Z,97771.03
2022-12-13T16:29:46.129Z,97772.50
2022-12-13T16:32:12.855Z,97779.16
2022-12-13T16:34:39.721Z,97778.34
2022-12-13T16:37:08.817Z,97774.97
2022-12-13T16:39:52.581Z,97775.69
2022-12-13T16:42:19.653Z,97775.69
2022-12-13T16:44:48.132Z,97772.84
2022-12-13T16:47:22.371Z,97771.47
2022-12-13T16:49:53.816Z,97770.91
2022-12-13T16:52:22.054Z,97775.63
2022-12-13T16:54:48.876Z,97775.22
2022-12-13T16:57:15.541Z,97776.25
2022-12-13T16:59:42.202Z,97775.84
2022-12-13T17:02:17.834Z,97771.84
2022-12-13T17:04:44.732Z,97772.38
2022-12-13T17:07:11.417Z,97765.81
2022-12-13T17:09:39.107Z,97758.84
2022-12-13T17:12:06.044Z,97755.16
2022-12-13T17:14:32.722Z,97759.22
2022-12-13T17:16:59.469Z,97758.94
2022-12-13T17:19:26.285Z,97753.63
2022-12-13T17:21:53.408Z,97750.22
2022-12-13T17:24:20.123Z,97754.28
2022-12-13T17:26:53.814Z,97747.47
2022-12-13T17:29:21.983Z,97760.56
2022-12-13T17:31:48.683Z,97752.81
2022-12-13T17:34:15.574Z,97753.09
2022-12-13T17:36:43.612Z,97755.69
2022-12-13T17:39:12.219Z,97752.97
2022-12-13T17:41:39.113Z,97746.69
2022-12-13T17:44:06.183Z,97747.47
2022-12-13T17:46:34.737Z,97747.47
2022-12-13T17:49:02.170Z,97748.47
2022-12-13T17:51:29.505Z,97741.81
2022-12-13T17:53:56.226Z,97736.63
2022-12-13T17:56:22.889Z,97737.28
2022-12-13T17:58:49.680Z,97732.41
2022-12-13T18:01:17.700Z,97734.06
2022-12-13T18:03:45.003Z,97735.66
2022-12-13T18:06:12.217Z,97746.31
2022-12-13T18:08:40.605Z,97738.69
2022-12-13T18:14:06.142Z,97737.22
2022-12-13T18:16:37.439Z,97741.69
2022-12-13T18:19:07.373Z,97735.88
2022-12-13T18:21:35.615Z,97737.78
2022-12-13T18:24:02.505Z,97739.72
2022-12-13T18:26:29.400Z,97740.00
2022-12-13T18:28:56.220Z,97738.38
2022-12-13T18:31:24.627Z,97723.97
2022-12-13T18:33:53.451Z,97729.16
2022-12-13T18:36:22.182Z,97725.88
2022-12-13T18:38:49.064Z,97726.72
2022-12-13T18:41:18.396Z,97725.72
2022-12-13T18:43:45.906Z,97715.53
2022-12-13T18:46:14.639Z,97726.72
2022-12-13T18:48:41.916Z,97728.63
2022-12-13T18:51:09.784Z,97729.56
2022-12-13T18:53:37.824Z,97731.50
2022-12-13T18:56:10.438Z,97729.41
2022-12-13T18:58:41.873Z,97721.81
2022-12-13T19:01:11.794Z,97717.59
2022-12-13T19:03:38.975Z,97721.81
2022-12-13T19:06:07.080Z,97724.25
2022-12-13T19:08:36.595Z,97721.81
2022-12-13T19:11:03.860Z,97729.88
2022-12-13T19:13:32.269Z,97719.69
2022-12-13T19:16:06.260Z,97719.22
2022-12-13T19:18:33.624Z,97723.59
2022-12-13T19:21:00.339Z,97721.97
2022-12-13T19:23:30.461Z,97726.97
2022-12-13T19:25:58.328Z,97736.38
2022-12-13T19:28:24.957Z,97729.56
2022-12-13T19:30:52.143Z,97723.28
2022-12-13T19:33:19.407Z,97716.38
2022-12-13T19:35:48.912Z,97718.28
2022-12-13T19:38:15.576Z,97720.06
2022-12-13T19:40:47.018Z,97723.28
2022-12-13T19:43:13.720Z,97717.47
2022-12-13T19:45:45.558Z,97711.47
2022-12-13T19:48:13.055Z,97720.06
2022-12-13T19:50:40.365Z,97721.25
2022-12-13T19:53:08.065Z,97717.97
2022-12-13T19:55:35.046Z,97711.06
2022-12-13T19:58:02.132Z,97705.19
2022-12-13T20:00:28.875Z,97698.28
2022-12-13T20:02:55.851Z,97695.81
2022-12-13T20:05:22.572Z,97693.38
2022-12-13T20:07:49.925Z,97685.78
2022-12-13T20:10:16.695Z,97676.91
2022-12-13T20:12:43.387Z,97678.53
2022-12-13T20:15:10.403Z,97677.44
2022-12-13T20:17:37.104Z,97680.81
2022-12-13T20:20:05.364Z,97688.59
2022-12-13T20:22:33.233Z,97684.53
2022-12-13T20:24:59.893Z,97682.09
2022-12-13T20:27:27.112Z,97680.44
2022-12-13T20:29:53.834Z,97674.47
2022-12-13T20:32:21.365Z,97666.88
2022-12-13T20:34:54.346Z,97665.25
2022-12-13T20:37:21.623Z,97665.25
2022-12-13T20:39:48.330Z,97663.31
2022-12-13T20:42:17.484Z,97660.06
2022-12-13T20:44:44.789Z,97658.59
2022-12-13T20:47:11.544Z,97655.56
2022-12-13T20:49:38.266Z,97651.38
2022-12-13T20:52:05.290Z,97650.09
2022-12-13T20:54:32.016Z,97646.69
2022-12-13T20:56:58.668Z,97643.00
2022-12-13T20:59:25.431Z,97640.41
2022-12-13T21:01:52.501Z,97634.13
2022-12-13T21:04:19.306Z,97639.53
2022-12-13T21:06:45.946Z,97640.78
2022-12-13T21:09:12.938Z,97643.16
2022-12-13T21:11:40.743Z,97646.34
2022-12-13T21:14:11.154Z,97646.78
2022-12-13T21:16:43.432Z,97632.91
2022-12-13T21:19:12.986Z,97634.81
2022-12-13T21:21:39.685Z,97631.84
2022-12-13T21:24:06.690Z,97631.19
2022-12-13T21:26:36.157Z,97633.81
2022-12-13T21:29:06.717Z,97622.31
2022-12-13T21:31:35.369Z,97619.41
2022-12-13T21:34:02.494Z,97619.31
2022-12-13T21:36:33.601Z,97622.00
2022-12-13T21:39:02.537Z,97616.75
2022-12-13T21:41:29.686Z,97614.97
2022-12-13T21:43:56.477Z,97616.59
2022-12-13T21:46:35.737Z,97612.53
2022-12-13T21:49:12.171Z,97606.66
2022-12-13T21:51:42.151Z,97607.66
2022-12-13T21:54:12.837Z,97607.13
2022-12-13T21:56:54.875Z,97602.63
2022-12-13T21:59:24.356Z,97603.31
2022-12-13T22:02:10.043Z,97604.94
2022-12-13T22:04:38.591Z,97607.53
2022-12-13T22:07:07.233Z,97606.53
2022-12-13T22:09:36.013Z,97601.03
2022-12-13T22:12:06.566Z,97605.50
2022-12-13T22:14:33.210Z,97595.66
2022-12-13T22:16:59.893Z,97589.06
2022-12-13T22:19:28.051Z,97578.06
2022-12-13T22:21:54.718Z,97570.97
2022-12-13T22:24:21.486Z,97567.44
2022-12-13T22:26:48.109Z,97565.66
2022-12-13T22:29:15.279Z,97552.41
2022-12-13T22:31:42.105Z,97554.34
2022-12-13T22:34:09.076Z,97549.03
2022-12-13T22:36:35.771Z,97545.47
2022-12-13T22:39:03.869Z,97539.72
2022-12-13T22:41:30.594Z,97537.25
2022-12-13T22:43:58.691Z,97534.56
2022-12-13T22:46:26.661Z,97527.59
2022-12-13T22:48:53.776Z,97534.56
2022-12-13T22:51:20.534Z,97535.19
2022-12-13T22:53:48.460Z,97528.84
2022-12-13T22:56:19.644Z,97523.41
2022-12-13T22:58:46.728Z,97525.97
2022-12-13T23:01:16.854Z,97534.28
2022-12-13T23:03:45.109Z,97528.56
2022-12-13T23:06:13.370Z,97524.94
2022-12-13T23:08:43.572Z,97528.78
2022-12-13T23:11:27.438Z,97526.84
2022-12-13T23:13:55.830Z,97527.22
2022-12-13T23:16:25.141Z,97513.78
2022-12-13T23:19:05.254Z,97520.44
2022-12-13T23:21:38.519Z,97514.03
2022-12-13T23:24:09.691Z,97509.59
2022-12-13T23:26:37.161Z,97511.06
2022-12-13T23:29:08.029Z,97505.91
2022-12-13T23:31:38.705Z,97509.38
2022-12-13T23:34:06.664Z,97509.09
2022-12-13T23:36:34.168Z,97511.16
2022-12-13T23:39:02.600Z,97507.91
2022-12-13T23:41:34.434Z,97497.72
2022-12-13T23:44:01.161Z,97487.94
2022-12-13T23:46:31.723Z,97492.56
2022-12-13T23:49:01.595Z,97493.28
2022-12-13T23:51:28.896Z,97496.69
2022-12-13T23:53:55.713Z,97485.84
2022-12-13T23:56:23.552Z,97471.69
2022-12-13T23:58:50.953Z,97464.09
